createdAt,value
2023-02-12T00:04:38.467Z,4.77
2023-02-12T00:09:40.171Z,4.73
2023-02-12T00:14:42.578Z,4.55
2023-02-12T00:19:44.268Z,4.48
2023-02-12T00:24:45.883Z,4.52
2023-02-12T00:29:47.529Z,4.61
2023-02-12T00:34:49.498Z,4.64
2023-02-12T00:39:51.130Z,4.62
2023-02-12T00:44:52.695Z,4.57
2023-02-12T00:49:54.270Z,4.56
2023-02-12T00:54:55.881Z,4.52
2023-02-12T00:59:57.454Z,4.49
2023-02-12T01:04:59.126Z,4.44
2023-02-12T01:10:00.715Z,4.49
2023-02-12T01:15:04.819Z,4.52
2023-02-12T01:20:11.085Z,4.51
2023-02-12T01:25:12.806Z,4.52
2023-02-12T01:30:15.274Z,4.55
2023-02-12T01:35:16.956Z,4.54
2023-02-12T01:40:19.087Z,4.54
2023-02-12T01:45:23.606Z,4.54
2023-02-12T01:50:25.366Z,4.59
2023-02-12T01:55:27.788Z,4.68
2023-02-12T02:00:29.476Z,4.65
2023-02-12T02:05:43.781Z,4.58
2023-02-12T02:10:45.368Z,4.59
2023-02-12T02:15:55.224Z,4.60
2023-02-12T02:21:27.060Z,4.64
2023-02-12T02:26:50.614Z,4.61
2023-02-12T02:31:59.046Z,4.59
2023-02-12T02:37:28.160Z,4.59
2023-02-12T02:42:37.464Z,4.57
2023-02-12T02:47:43.505Z,4.48
2023-02-12T02:53:16.734Z,4.45
2023-02-12T02:58:26.612Z,4.47
2023-02-12T03:04:07.776Z,4.39
2023-02-12T03:09:16.967Z,4.38
2023-02-12T03:14:37.810Z,4.39
2023-02-12T03:19:46.917Z,4.36
2023-02-12T03:24:53.968Z,4.36
2023-02-12T03:29:56.190Z,4.33
2023-02-12T03:35:15.159Z,4.35
2023-02-12T03:40:41.524Z,4.42
2023-02-12T03:46:02.028Z,4.48
2023-02-12T03:51:11.447Z,4.47
2023-02-12T03:56:53.628Z,4.45
2023-02-12T04:01:58.626Z,4.41
2023-02-12T04:07:01.009Z,4.36
2023-02-12T04:12:07.783Z,4.40
2023-02-12T04:17:20.011Z,4.47
2023-02-12T04:22:41.691Z,4.51
2023-02-12T04:28:14.320Z,4.55
2023-02-12T04:33:22.884Z,4.57
2023-02-12T04:38:34.881Z,4.56
2023-02-12T04:43:37.656Z,4.59
2023-02-12T04:48:52.338Z,4.58
2023-02-12T04:53:53.926Z,4.59
2023-02-12T04:58:58.007Z,4.60
2023-02-12T05:03:59.588Z,4.65
2023-02-12T05:09:01.292Z,4.57
2023-02-12T05:14:02.940Z,4.52
2023-02-12T05:19:04.662Z,4.51
2023-02-12T05:24:06.402Z,4.50
2023-02-12T05:29:07.987Z,4.48
2023-02-12T05:34:12.066Z,4.48
2023-02-12T05:39:13.730Z,4.49
2023-02-12T05:44:15.408Z,4.55
2023-02-12T05:49:17.079Z,4.58
2023-02-12T05:54:18.686Z,4.57
2023-02-12T05:59:22.806Z,4.58
2023-02-12T06:04:28.044Z,4.58
2023-02-12T06:09:29.663Z,4.60
2023-02-12T06:14:32.079Z,4.62
2023-02-12T06:19:33.829Z,4.64
2023-02-12T06:24:37.175Z,4.63
2023-02-12T06:29:38.745Z,4.59
2023-02-12T06:34:41.070Z,4.56
2023-02-12T06:39:42.649Z,4.49
2023-02-12T06:44:44.308Z,4.37
2023-02-12T06:49:45.863Z,4.28
2023-02-12T06:54:47.435Z,4.16
2023-02-12T06:59:49.886Z,4.13
2023-02-12T07:04:51.482Z,4.12
2023-02-12T07:09:53.062Z,4.11
2023-02-12T07:14:54.659Z,4.17
2023-02-12T07:19:56.400Z,4.23
2023-02-12T07:24:57.966Z,4.36
2023-02-12T07:29:59.595Z,4.55
2023-02-12T07:35:01.281Z,4.71
2023-02-12T07:40:03.393Z,4.78
2023-02-12T07:45:05.498Z,4.80
2023-02-12T07:50:07.448Z,4.81
2023-02-12T07:55:09.339Z,4.82
2023-02-12T08:00:11.420Z,4.87
2023-02-12T08:05:15.872Z,4.97
2023-02-12T08:10:22.267Z,5.09
2023-02-12T08:15:24.009Z,5.22
2023-02-12T08:20:25.750Z,5.38
2023-02-12T08:25:27.364Z,5.51
2023-02-12T08:30:29.013Z,5.75
2023-02-12T08:35:30.679Z,6.05
2023-02-12T08:40:33.259Z,6.09
2023-02-12T08:45:35.040Z,6.26
2023-02-12T08:50:36.850Z,6.43
2023-02-12T08:55:38.707Z,6.56
2023-02-12T09:00:40.551Z,6.79
2023-02-12T09:05:42.486Z,7.01
2023-02-12T09:10:45.264Z,7.10
2023-02-12T09:15:46.933Z,7.19
2023-02-12T09:20:48.656Z,7.29
2023-02-12T09:25:50.225Z,7.42
2023-02-12T09:30:51.975Z,7.47
2023-02-12T09:35:54.193Z,7.43
2023-02-12T09:41:20.657Z,7.53
2023-02-12T09:46:40.986Z,7.66
2023-02-12T09:51:51.272Z,7.68
2023-02-12T09:56:57.155Z,7.89
2023-02-12T10:01:59.651Z,8.20
2023-02-12T10:07:40.440Z,8.36
2023-02-12T10:12:55.771Z,8.43
2023-02-12T10:18:06.392Z,8.53
2023-02-12T10:23:33.125Z,8.61
2023-02-12T10:28:39.497Z,8.80
2023-02-12T10:33:49.322Z,8.95
2023-02-12T10:38:58.338Z,8.70
2023-02-12T10:43:59.964Z,8.86
2023-02-12T10:49:02.344Z,9.07
2023-02-12T10:54:43.982Z,9.04
2023-02-12T10:59:47.692Z,9.18
2023-02-12T11:04:50.017Z,9.46
2023-02-12T11:09:53.907Z,9.36
2023-02-12T11:14:58.471Z,9.23
2023-02-12T11:20:05.357Z,9.05
2023-02-12T11:25:16.895Z,8.89
2023-02-12T11:30:21.297Z,8.79
2023-02-12T11:35:25.932Z,8.60
2023-02-12T11:40:34.084Z,8.56
2023-02-12T11:45:45.083Z,8.59
2023-02-12T11:50:49.078Z,8.51
2023-02-12T11:55:57.316Z,8.60
2023-02-12T12:01:12.522Z,8.58
2023-02-12T12:06:21.993Z,8.62
2023-02-12T12:11:38.459Z,8.58
2023-02-12T12:17:10.452Z,8.63
2023-02-12T12:22:21.592Z,8.58
2023-02-12T12:27:46.179Z,8.49
2023-02-12T12:32:52.708Z,8.50
2023-02-12T12:37:59.883Z,8.35
2023-02-12T12:43:09.596Z,8.26
2023-02-12T12:48:32.138Z,8.26
2023-02-12T12:53:51.545Z,8.26
2023-02-12T12:59:14.290Z,8.37
2023-02-12T13:04:56.138Z,8.38
2023-02-12T13:10:22.127Z,8.40
2023-02-12T13:15:45.294Z,8.41
2023-02-12T13:21:01.623Z,8.38
2023-02-12T13:26:24.600Z,8.40
2023-02-12T13:31:33.662Z,8.48
2023-02-12T13:36:37.756Z,8.51
2023-02-12T13:41:43.926Z,8.56
2023-02-12T13:47:14.998Z,8.57
2023-02-12T13:52:28.591Z,8.59
2023-02-12T13:57:30.176Z,8.58
2023-02-12T14:02:34.800Z,8.59
2023-02-12T14:07:45.692Z,8.58
2023-02-12T14:12:47.509Z,8.65
2023-02-12T14:18:03.804Z,8.71
2023-02-12T14:23:27.569Z,8.71
2023-02-12T14:28:35.078Z,8.67
2023-02-12T14:33:36.743Z,8.68
2023-02-12T14:38:47.455Z,8.69
2023-02-12T14:44:01.393Z,8.69
2023-02-12T14:49:07.709Z,8.70
2023-02-12T14:54:26.615Z,8.69
2023-02-12T14:59:34.685Z,8.74
2023-02-12T15:04:38.512Z,8.77
2023-02-12T15:09:50.403Z,8.77
2023-02-12T15:15:04.815Z,8.74
2023-02-12T15:20:41.339Z,8.71
2023-02-12T15:25:43.529Z,8.62
2023-02-12T15:30:46.346Z,8.54
2023-02-12T15:35:48.851Z,8.51
2023-02-12T15:40:59.001Z,8.53
2023-02-12T15:46:03.114Z,8.49
2023-02-12T15:51:38.640Z,8.45
2023-02-12T15:56:41.818Z,8.40
2023-02-12T16:01:56.970Z,8.39
2023-02-12T16:07:00.377Z,8.31
2023-02-12T16:12:05.345Z,8.25
2023-02-12T16:17:25.565Z,8.12
2023-02-12T16:22:36.281Z,8.04
2023-02-12T16:27:38.026Z,7.96
2023-02-12T16:32:42.380Z,7.87
2023-02-12T16:37:49.631Z,7.72
2023-02-12T16:42:51.423Z,7.55
2023-02-12T16:48:04.205Z,7.39
2023-02-12T16:53:25.678Z,7.15
2023-02-12T16:58:28.694Z,7.04
2023-02-12T17:03:30.850Z,6.90
2023-02-12T17:08:32.672Z,6.98
2023-02-12T17:13:34.332Z,6.84
2023-02-12T17:18:36.145Z,6.62
2023-02-12T17:23:40.435Z,6.38
2023-02-12T17:28:42.335Z,6.36
2023-02-12T17:33:44.620Z,6.35
2023-02-12T17:38:46.576Z,6.27
2023-02-12T17:43:48.362Z,6.22
2023-02-12T17:48:50.251Z,6.09
2023-02-12T17:53:51.981Z,6.12
2023-02-12T17:58:53.772Z,6.03
2023-02-12T18:03:58.905Z,6.00
2023-02-12T18:09:01.987Z,5.90
2023-02-12T18:14:03.839Z,5.88
2023-02-12T18:19:06.272Z,5.83
2023-02-12T18:24:08.538Z,5.78
2023-02-12T18:29:10.272Z,5.75
2023-02-12T18:34:12.808Z,5.66
2023-02-12T18:39:14.409Z,5.55
2023-02-12T18:44:16.461Z,5.36
2023-02-12T18:49:18.283Z,5.20
2023-02-12T18:54:20.562Z,5.10
2023-02-12T18:59:23.263Z,5.05
2023-02-12T19:04:27.995Z,4.93
2023-02-12T19:09:29.745Z,4.97
2023-02-12T19:14:31.557Z,4.90
2023-02-12T19:19:33.306Z,4.87
2023-02-12T19:24:45.523Z,4.93
2023-02-12T19:29:47.733Z,4.86
2023-02-12T19:34:49.311Z,4.64
2023-02-12T19:39:51.162Z,4.52
2023-02-12T19:44:52.955Z,4.35
2023-02-12T19:49:55.078Z,4.22
2023-02-12T19:54:57.002Z,4.11
2023-02-12T19:59:58.633Z,3.89
2023-02-12T20:05:00.459Z,3.70
2023-02-12T20:10:02.052Z,3.69
2023-02-12T20:15:04.424Z,3.64
2023-02-12T20:20:07.365Z,3.62
2023-02-12T20:25:08.961Z,3.63
2023-02-12T20:30:10.985Z,3.76
2023-02-12T20:35:13.907Z,3.95
2023-02-12T20:40:15.723Z,4.07
2023-02-12T20:45:17.444Z,4.19
2023-02-12T20:50:19.304Z,4.22
2023-02-12T20:55:21.086Z,4.20
2023-02-12T21:00:23.047Z,4.21
2023-02-12T21:05:24.802Z,4.16
2023-02-12T21:10:28.667Z,4.14
2023-02-12T21:15:31.394Z,4.13
2023-02-12T21:20:33.097Z,4.10
2023-02-12T21:25:34.693Z,4.09
2023-02-12T21:30:38.566Z,3.98
2023-02-12T21:35:40.713Z,3.86
2023-02-12T21:40:42.314Z,3.78
2023-02-12T21:45:51.853Z,3.68
2023-02-12T21:50:53.589Z,3.71
2023-02-12T21:55:55.592Z,3.68
2023-02-12T22:00:58.075Z,3.76
2023-02-12T22:06:02.196Z,3.72
2023-02-12T22:11:09.541Z,3.76
2023-02-12T22:16:14.336Z,3.80
2023-02-12T22:21:18.016Z,3.76
2023-02-12T22:26:24.030Z,3.66
2023-02-12T22:31:29.519Z,3.54
2023-02-12T22:36:32.008Z,3.48
2023-02-12T22:41:34.112Z,3.51
2023-02-12T22:46:36.184Z,3.54
2023-02-12T22:51:39.528Z,3.50
2023-02-12T22:56:42.039Z,3.45
2023-02-12T23:01:43.744Z,3.42
2023-02-12T23:06:45.961Z,3.35
2023-02-12T23:11:47.933Z,3.29
2023-02-12T23:16:49.499Z,3.24
2023-02-12T23:21:51.344Z,3.29
2023-02-12T23:26:53.725Z,3.29
2023-02-12T23:31:55.329Z,3.38
2023-02-12T23:36:57.260Z,3.36
2023-02-12T23:41:58.859Z,3.31
2023-02-12T23:47:02.308Z,3.21
2023-02-12T23:52:04.107Z,3.11
2023-02-12T23:57:05.737Z,3.19
